sensor_id;sensor_type;location;lat;lon;timestamp;P1;durP1;ratioP1;P2;durP2;ratioP2
21905;SDS011;11117;48.644;9.006;2023-04-25T00:01:30;5.50;;;3.77;;
21905;SDS011;11117;48.644;9.006;2023-04-25T00:03:56;5.60;;;3.87;;
21905;SDS011;11117;48.644;9.006;2023-04-25T00:06:21;5.63;;;3.73;;
21905;SDS011;11117;48.644;9.006;2023-04-25T00:08:47;7.20;;;4.30;;
21905;SDS011;11117;48.644;9.006;2023-04-25T00:11:13;7.10;;;4.50;;
21905;SDS011;11117;48.644;9.006;2023-04-25T00:13:38;9.83;;;4.77;;
21905;SDS011;11117;48.644;9.006;2023-04-25T00:16:04;9.83;;;4.47;;
21905;SDS011;11117;48.644;9.006;2023-04-25T00:18:30;6.80;;;4.40;;
21905;SDS011;11117;48.644;9.006;2023-04-25T00:20:55;6.57;;;4.30;;
21905;SDS011;11117;48.644;9.006;2023-04-25T00:23:21;5.80;;;4.27;;
21905;SDS011;11117;48.644;9.006;2023-04-25T00:25:47;7.50;;;4.67;;
21905;SDS011;11117;48.644;9.006;2023-04-25T00:28:14;5.97;;;4.13;;
21905;SDS011;11117;48.644;9.006;2023-04-25T00:30:40;6.00;;;4.20;;
21905;SDS011;11117;48.644;9.006;2023-04-25T00:33:07;5.87;;;4.17;;
21905;SDS011;11117;48.644;9.006;2023-04-25T00:35:32;7.20;;;4.57;;
21905;SDS011;11117;48.644;9.006;2023-04-25T00:37:58;6.97;;;4.40;;
21905;SDS011;11117;48.644;9.006;2023-04-25T00:40:24;7.37;;;4.60;;
21905;SDS011;11117;48.644;9.006;2023-04-25T00:42:50;7.70;;;4.30;;
21905;SDS011;11117;48.644;9.006;2023-04-25T00:45:17;6.97;;;4.27;;
21905;SDS011;11117;48.644;9.006;2023-04-25T00:47:44;7.43;;;4.40;;
21905;SDS011;11117;48.644;9.006;2023-04-25T00:50:11;6.13;;;3.60;;
21905;SDS011;11117;48.644;9.006;2023-04-25T00:52:39;4.40;;;3.40;;
21905;SDS011;11117;48.644;9.006;2023-04-25T00:55:08;5.50;;;3.67;;
21905;SDS011;11117;48.644;9.006;2023-04-25T00:57:34;7.13;;;3.73;;
21905;SDS011;11117;48.644;9.006;2023-04-25T01:00:00;4.60;;;3.40;;
21905;SDS011;11117;48.644;9.006;2023-04-25T01:02:26;5.53;;;3.40;;
21905;SDS011;11117;48.644;9.006;2023-04-25T01:04:52;5.10;;;3.47;;
21905;SDS011;11117;48.644;9.006;2023-04-25T01:07:18;4.80;;;3.67;;
21905;SDS011;11117;48.644;9.006;2023-04-25T01:09:45;5.60;;;3.90;;
21905;SDS011;11117;48.644;9.006;2023-04-25T01:12:11;5.93;;;4.10;;
21905;SDS011;11117;48.644;9.006;2023-04-25T01:14:37;7.27;;;3.87;;
21905;SDS011;11117;48.644;9.006;2023-04-25T01:17:03;7.13;;;3.73;;
21905;SDS011;11117;48.644;9.006;2023-04-25T01:19:29;5.37;;;3.90;;
21905;SDS011;11117;48.644;9.006;2023-04-25T01:21:55;6.87;;;4.10;;
21905;SDS011;11117;48.644;9.006;2023-04-25T01:24:20;8.13;;;4.00;;
21905;SDS011;11117;48.644;9.006;2023-04-25T01:26:46;6.60;;;3.63;;
21905;SDS011;11117;48.644;9.006;2023-04-25T01:29:12;3.77;;;3.23;;
21905;SDS011;11117;48.644;9.006;2023-04-25T01:31:38;5.77;;;3.20;;
21905;SDS011;11117;48.644;9.006;2023-04-25T01:34:03;4.83;;;3.13;;
21905;SDS011;11117;48.644;9.006;2023-04-25T01:36:29;7.47;;;3.27;;
21905;SDS011;11117;48.644;9.006;2023-04-25T01:38:54;8.77;;;3.23;;
21905;SDS011;11117;48.644;9.006;2023-04-25T01:41:20;6.97;;;3.40;;
21905;SDS011;11117;48.644;9.006;2023-04-25T01:43:46;5.97;;;3.33;;
21905;SDS011;11117;48.644;9.006;2023-04-25T01:46:11;7.77;;;3.83;;
21905;SDS011;11117;48.644;9.006;2023-04-25T01:48:37;6.20;;;3.83;;
21905;SDS011;11117;48.644;9.006;2023-04-25T01:51:03;6.33;;;4.00;;
21905;SDS011;11117;48.644;9.006;2023-04-25T01:53:28;7.57;;;4.00;;
21905;SDS011;11117;48.644;9.006;2023-04-25T01:55:55;6.17;;;4.40;;
21905;SDS011;11117;48.644;9.006;2023-04-25T01:58:20;6.70;;;4.03;;
21905;SDS011;11117;48.644;9.006;2023-04-25T02:00:46;7.87;;;4.57;;
21905;SDS011;11117;48.644;9.006;2023-04-25T02:03:11;6.77;;;3.60;;
21905;SDS011;11117;48.644;9.006;2023-04-25T02:05:37;4.97;;;3.43;;
21905;SDS011;11117;48.644;9.006;2023-04-25T02:08:04;6.00;;;3.33;;
21905;SDS011;11117;48.644;9.006;2023-04-25T02:10:32;4.50;;;3.37;;
21905;SDS011;11117;48.644;9.006;2023-04-25T02:12:58;9.33;;;3.50;;
21905;SDS011;11117;48.644;9.006;2023-04-25T02:15:23;5.23;;;3.37;;
21905;SDS011;11117;48.644;9.006;2023-04-25T02:17:49;4.63;;;3.27;;
21905;SDS011;11117;48.644;9.006;2023-04-25T02:20:15;5.83;;;3.50;;
21905;SDS011;11117;48.644;9.006;2023-04-25T02:22:40;6.47;;;3.40;;
21905;SDS011;11117;48.644;9.006;2023-04-25T02:25:06;8.20;;;3.57;;
21905;SDS011;11117;48.644;9.006;2023-04-25T02:27:32;5.53;;;3.57;;
21905;SDS011;11117;48.644;9.006;2023-04-25T02:29:58;6.77;;;3.63;;
21905;SDS011;11117;48.644;9.006;2023-04-25T02:32:23;6.70;;;3.70;;
21905;SDS011;11117;48.644;9.006;2023-04-25T02:34:49;6.83;;;3.80;;
21905;SDS011;11117;48.644;9.006;2023-04-25T02:37:14;6.83;;;4.00;;
21905;SDS011;11117;48.644;9.006;2023-04-25T02:39:45;6.53;;;3.60;;
21905;SDS011;11117;48.644;9.006;2023-04-25T02:42:12;5.33;;;3.70;;
21905;SDS011;11117;48.644;9.006;2023-04-25T02:44:37;6.40;;;3.67;;
21905;SDS011;11117;48.644;9.006;2023-04-25T02:47:03;5.77;;;3.70;;
21905;SDS011;11117;48.644;9.006;2023-04-25T02:49:28;6.93;;;3.83;;
21905;SDS011;11117;48.644;9.006;2023-04-25T02:51:54;7.93;;;4.07;;
21905;SDS011;11117;48.644;9.006;2023-04-25T02:54:19;5.33;;;3.90;;
21905;SDS011;11117;48.644;9.006;2023-04-25T02:56:45;8.87;;;4.90;;
21905;SDS011;11117;48.644;9.006;2023-04-25T02:59:10;7.23;;;4.20;;
21905;SDS011;11117;48.644;9.006;2023-04-25T03:01:36;8.20;;;4.00;;
21905;SDS011;11117;48.644;9.006;2023-04-25T03:04:01;6.40;;;4.37;;
21905;SDS011;11117;48.644;9.006;2023-04-25T03:06:27;8.97;;;3.97;;
21905;SDS011;11117;48.644;9.006;2023-04-25T03:08:53;6.47;;;4.40;;
21905;SDS011;11117;48.644;9.006;2023-04-25T03:11:18;7.43;;;3.90;;
21905;SDS011;11117;48.644;9.006;2023-04-25T03:13:44;5.47;;;3.80;;
21905;SDS011;11117;48.644;9.006;2023-04-25T03:16:09;7.23;;;3.80;;
21905;SDS011;11117;48.644;9.006;2023-04-25T03:18:35;7.87;;;4.00;;
21905;SDS011;11117;48.644;9.006;2023-04-25T03:21:00;5.43;;;3.43;;
21905;SDS011;11117;48.644;9.006;2023-04-25T03:23:26;4.93;;;3.77;;
21905;SDS011;11117;48.644;9.006;2023-04-25T03:25:51;8.30;;;4.07;;
21905;SDS011;11117;48.644;9.006;2023-04-25T03:28:17;7.97;;;4.03;;
21905;SDS011;11117;48.644;9.006;2023-04-25T03:30:42;8.43;;;4.33;;
21905;SDS011;11117;48.644;9.006;2023-04-25T03:33:08;7.00;;;4.00;;
21905;SDS011;11117;48.644;9.006;2023-04-25T03:35:33;11.20;;;4.53;;
21905;SDS011;11117;48.644;9.006;2023-04-25T03:37:59;8.17;;;4.00;;
21905;SDS011;11117;48.644;9.006;2023-04-25T03:40:25;7.67;;;3.90;;
21905;SDS011;11117;48.644;9.006;2023-04-25T03:42:50;7.67;;;4.07;;
21905;SDS011;11117;48.644;9.006;2023-04-25T03:45:16;6.53;;;3.90;;
21905;SDS011;11117;48.644;9.006;2023-04-25T03:47:41;6.17;;;3.80;;
21905;SDS011;11117;48.644;9.006;2023-04-25T03:50:07;8.73;;;4.23;;
21905;SDS011;11117;48.644;9.006;2023-04-25T03:52:33;7.57;;;3.93;;
21905;SDS011;11117;48.644;9.006;2023-04-25T03:54:58;8.57;;;4.07;;
21905;SDS011;11117;48.644;9.006;2023-04-25T03:57:24;8.40;;;4.60;;
21905;SDS011;11117;48.644;9.006;2023-04-25T03:59:49;9.60;;;4.67;;
21905;SDS011;11117;48.644;9.006;2023-04-25T04:02:15;8.70;;;5.37;;
21905;SDS011;11117;48.644;9.006;2023-04-25T04:04:43;6.37;;;4.23;;
21905;SDS011;11117;48.644;9.006;2023-04-25T04:07:09;8.60;;;5.00;;
21905;SDS011;11117;48.644;9.006;2023-04-25T04:09:34;9.17;;;4.90;;
21905;SDS011;11117;48.644;9.006;2023-04-25T04:12:00;8.37;;;4.80;;
21905;SDS011;11117;48.644;9.006;2023-04-25T04:14:25;8.70;;;4.90;;
21905;SDS011;11117;48.644;9.006;2023-04-25T04:16:51;24.37;;;6.10;;
21905;SDS011;11117;48.644;9.006;2023-04-25T04:19:16;322.87;;;13.57;;
21905;SDS011;11117;48.644;9.006;2023-04-25T04:21:42;15.23;;;6.37;;
21905;SDS011;11117;48.644;9.006;2023-04-25T04:24:07;47.33;;;8.70;;
21905;SDS011;11117;48.644;9.006;2023-04-25T04:26:33;11.93;;;6.10;;
21905;SDS011;11117;48.644;9.006;2023-04-25T04:28:59;10.27;;;5.80;;
21905;SDS011;11117;48.644;9.006;2023-04-25T04:31:24;10.37;;;6.03;;
21905;SDS011;11117;48.644;9.006;2023-04-25T04:33:50;12.77;;;6.17;;
21905;SDS011;11117;48.644;9.006;2023-04-25T04:36:15;12.83;;;6.27;;
21905;SDS011;11117;48.644;9.006;2023-04-25T04:38:41;11.07;;;6.13;;
21905;SDS011;11117;48.644;9.006;2023-04-25T04:41:07;12.23;;;6.33;;
21905;SDS011;11117;48.644;9.006;2023-04-25T04:43:33;13.93;;;6.47;;
21905;SDS011;11117;48.644;9.006;2023-04-25T04:46:00;13.93;;;6.80;;
21905;SDS011;11117;48.644;9.006;2023-04-25T04:48:26;14.80;;;7.20;;
21905;SDS011;11117;48.644;9.006;2023-04-25T04:50:51;16.93;;;6.90;;
21905;SDS011;11117;48.644;9.006;2023-04-25T04:53:17;14.63;;;7.23;;
21905;SDS011;11117;48.644;9.006;2023-04-25T04:55:42;19.33;;;7.53;;
21905;SDS011;11117;48.644;9.006;2023-04-25T04:58:08;16.63;;;6.47;;
21905;SDS011;11117;48.644;9.006;2023-04-25T05:00:34;12.50;;;6.30;;
21905;SDS011;11117;48.644;9.006;2023-04-25T05:02:59;11.97;;;6.13;;
21905;SDS011;11117;48.644;9.006;2023-04-25T05:05:25;13.27;;;6.17;;
21905;SDS011;11117;48.644;9.006;2023-04-25T05:07:50;11.47;;;6.30;;
21905;SDS011;11117;48.644;9.006;2023-04-25T05:10:19;11.30;;;5.67;;
21905;SDS011;11117;48.644;9.006;2023-04-25T05:12:45;12.93;;;6.50;;
21905;SDS011;11117;48.644;9.006;2023-04-25T05:15:10;12.23;;;5.90;;
21905;SDS011;11117;48.644;9.006;2023-04-25T05:17:36;11.77;;;6.07;;
21905;SDS011;11117;48.644;9.006;2023-04-25T05:20:02;10.67;;;6.60;;
21905;SDS011;11117;48.644;9.006;2023-04-25T05:22:28;9.00;;;5.67;;
21905;SDS011;11117;48.644;9.006;2023-04-25T05:24:53;10.93;;;5.43;;
21905;SDS011;11117;48.644;9.006;2023-04-25T05:27:19;8.87;;;4.53;;
21905;SDS011;11117;48.644;9.006;2023-04-25T05:29:46;8.80;;;5.03;;
21905;SDS011;11117;48.644;9.006;2023-04-25T05:32:11;8.67;;;4.90;;
21905;SDS011;11117;48.644;9.006;2023-04-25T05:34:37;9.57;;;5.20;;
21905;SDS011;11117;48.644;9.006;2023-04-25T05:37:03;9.07;;;5.10;;
21905;SDS011;11117;48.644;9.006;2023-04-25T05:39:28;8.37;;;4.93;;
21905;SDS011;11117;48.644;9.006;2023-04-25T05:41:54;14.60;;;4.53;;
21905;SDS011;11117;48.644;9.006;2023-04-25T05:44:19;8.27;;;4.27;;
21905;SDS011;11117;48.644;9.006;2023-04-25T05:46:45;10.00;;;4.43;;
21905;SDS011;11117;48.644;9.006;2023-04-25T05:49:11;8.40;;;4.53;;
21905;SDS011;11117;48.644;9.006;2023-04-25T05:51:36;8.87;;;4.87;;
21905;SDS011;11117;48.644;9.006;2023-04-25T05:54:02;7.53;;;4.50;;
21905;SDS011;11117;48.644;9.006;2023-04-25T05:56:28;8.83;;;4.30;;
21905;SDS011;11117;48.644;9.006;2023-04-25T05:58:53;7.47;;;4.50;;
21905;SDS011;11117;48.644;9.006;2023-04-25T06:01:19;9.03;;;4.40;;
21905;SDS011;11117;48.644;9.006;2023-04-25T06:03:44;6.97;;;5.20;;
21905;SDS011;11117;48.644;9.006;2023-04-25T06:06:11;8.37;;;4.77;;
21905;SDS011;11117;48.644;9.006;2023-04-25T06:08:36;11.57;;;4.73;;
21905;SDS011;11117;48.644;9.006;2023-04-25T06:11:02;8.23;;;4.20;;
21905;SDS011;11117;48.644;9.006;2023-04-25T06:13:28;7.60;;;4.10;;
21905;SDS011;11117;48.644;9.006;2023-04-25T06:15:53;9.57;;;4.37;;
21905;SDS011;11117;48.644;9.006;2023-04-25T06:18:19;13.27;;;4.70;;
21905;SDS011;11117;48.644;9.006;2023-04-25T06:20:44;8.13;;;5.40;;
21905;SDS011;11117;48.644;9.006;2023-04-25T06:23:10;12.67;;;6.10;;
21905;SDS011;11117;48.644;9.006;2023-04-25T06:25:35;12.10;;;5.53;;
21905;SDS011;11117;48.644;9.006;2023-04-25T06:28:01;7.17;;;4.47;;
21905;SDS011;11117;48.644;9.006;2023-04-25T06:30:26;9.77;;;4.67;;
21905;SDS011;11117;48.644;9.006;2023-04-25T06:32:52;10.37;;;5.03;;
21905;SDS011;11117;48.644;9.006;2023-04-25T06:35:18;6.57;;;4.17;;
21905;SDS011;11117;48.644;9.006;2023-04-25T06:37:44;11.00;;;4.77;;
21905;SDS011;11117;48.644;9.006;2023-04-25T06:40:09;11.30;;;4.60;;
21905;SDS011;11117;48.644;9.006;2023-04-25T06:42:35;11.77;;;4.50;;
21905;SDS011;11117;48.644;9.006;2023-04-25T06:45:02;6.27;;;4.20;;
21905;SDS011;11117;48.644;9.006;2023-04-25T06:47:28;10.60;;;4.63;;
21905;SDS011;11117;48.644;9.006;2023-04-25T06:49:53;7.97;;;4.73;;
21905;SDS011;11117;48.644;9.006;2023-04-25T06:52:19;8.07;;;4.93;;
21905;SDS011;11117;48.644;9.006;2023-04-25T06:54:45;14.73;;;5.47;;
21905;SDS011;11117;48.644;9.006;2023-04-25T06:57:11;8.73;;;5.77;;
21905;SDS011;11117;48.644;9.006;2023-04-25T06:59:37;9.83;;;5.47;;
21905;SDS011;11117;48.644;9.006;2023-04-25T07:02:03;10.40;;;5.80;;
21905;SDS011;11117;48.644;9.006;2023-04-25T07:04:28;8.67;;;5.70;;
21905;SDS011;11117;48.644;9.006;2023-04-25T07:06:54;9.80;;;5.23;;
21905;SDS011;11117;48.644;9.006;2023-04-25T07:09:20;7.97;;;5.10;;
21905;SDS011;11117;48.644;9.006;2023-04-25T07:11:45;11.27;;;5.27;;
21905;SDS011;11117;48.644;9.006;2023-04-25T07:14:11;9.40;;;5.57;;
21905;SDS011;11117;48.644;9.006;2023-04-25T07:16:36;7.90;;;5.03;;
21905;SDS011;11117;48.644;9.006;2023-04-25T07:19:02;11.00;;;5.73;;
21905;SDS011;11117;48.644;9.006;2023-04-25T07:21:27;10.33;;;5.77;;
21905;SDS011;11117;48.644;9.006;2023-04-25T07:23:53;8.90;;;5.43;;
21905;SDS011;11117;48.644;9.006;2023-04-25T07:26:18;7.93;;;5.07;;
21905;SDS011;11117;48.644;9.006;2023-04-25T07:28:45;11.87;;;5.67;;
21905;SDS011;11117;48.644;9.006;2023-04-25T07:31:10;10.03;;;4.93;;
21905;SDS011;11117;48.644;9.006;2023-04-25T07:33:36;8.03;;;4.93;;
21905;SDS011;11117;48.644;9.006;2023-04-25T07:36:02;10.03;;;5.10;;
21905;SDS011;11117;48.644;9.006;2023-04-25T07:38:27;12.53;;;4.77;;
21905;SDS011;11117;48.644;9.006;2023-04-25T07:40:53;6.13;;;5.00;;
21905;SDS011;11117;48.644;9.006;2023-04-25T07:43:18;8.33;;;4.83;;
21905;SDS011;11117;48.644;9.006;2023-04-25T07:45:44;9.97;;;4.97;;
21905;SDS011;11117;48.644;9.006;2023-04-25T07:48:11;9.97;;;4.40;;
21905;SDS011;11117;48.644;9.006;2023-04-25T07:50:41;6.37;;;4.67;;
21905;SDS011;11117;48.644;9.006;2023-04-25T07:53:06;8.23;;;4.90;;
21905;SDS011;11117;48.644;9.006;2023-04-25T07:55:32;9.30;;;5.67;;
21905;SDS011;11117;48.644;9.006;2023-04-25T07:57:58;10.47;;;5.77;;
21905;SDS011;11117;48.644;9.006;2023-04-25T08:00:23;12.00;;;4.93;;
21905;SDS011;11117;48.644;9.006;2023-04-25T08:02:49;9.27;;;5.57;;
21905;SDS011;11117;48.644;9.006;2023-04-25T08:05:14;12.17;;;5.40;;
21905;SDS011;11117;48.644;9.006;2023-04-25T08:07:40;8.23;;;5.50;;
21905;SDS011;11117;48.644;9.006;2023-04-25T08:10:06;7.33;;;4.97;;
21905;SDS011;11117;48.644;9.006;2023-04-25T08:12:32;7.90;;;4.90;;
21905;SDS011;11117;48.644;9.006;2023-04-25T08:14:58;6.60;;;4.40;;
21905;SDS011;11117;48.644;9.006;2023-04-25T08:17:23;6.97;;;4.50;;
21905;SDS011;11117;48.644;9.006;2023-04-25T08:19:49;6.60;;;5.00;;
21905;SDS011;11117;48.644;9.006;2023-04-25T08:22:15;6.57;;;4.50;;
21905;SDS011;11117;48.644;9.006;2023-04-25T08:24:42;6.83;;;4.60;;
21905;SDS011;11117;48.644;9.006;2023-04-25T08:27:07;6.53;;;4.43;;
21905;SDS011;11117;48.644;9.006;2023-04-25T08:29:33;9.00;;;5.23;;
21905;SDS011;11117;48.644;9.006;2023-04-25T08:31:59;9.97;;;5.90;;
21905;SDS011;11117;48.644;9.006;2023-04-25T08:34:25;7.93;;;4.93;;
21905;SDS011;11117;48.644;9.006;2023-04-25T08:36:51;6.37;;;4.70;;
21905;SDS011;11117;48.644;9.006;2023-04-25T08:39:16;6.53;;;4.90;;
21905;SDS011;11117;48.644;9.006;2023-04-25T08:41:42;8.70;;;5.00;;
21905;SDS011;11117;48.644;9.006;2023-04-25T08:44:09;7.03;;;4.73;;
21905;SDS011;11117;48.644;9.006;2023-04-25T08:46:37;6.87;;;4.47;;
21905;SDS011;11117;48.644;9.006;2023-04-25T08:49:03;9.27;;;4.93;;
21905;SDS011;11117;48.644;9.006;2023-04-25T08:51:31;5.10;;;4.37;;
21905;SDS011;11117;48.644;9.006;2023-04-25T08:53:57;8.00;;;5.30;;
21905;SDS011;11117;48.644;9.006;2023-04-25T08:56:35;8.77;;;4.63;;
21905;SDS011;11117;48.644;9.006;2023-04-25T08:59:01;10.50;;;5.20;;
21905;SDS011;11117;48.644;9.006;2023-04-25T09:01:27;9.30;;;5.40;;
21905;SDS011;11117;48.644;9.006;2023-04-25T09:03:53;8.27;;;4.83;;
21905;SDS011;11117;48.644;9.006;2023-04-25T09:06:19;4.93;;;4.33;;
21905;SDS011;11117;48.644;9.006;2023-04-25T09:08:44;7.47;;;4.30;;
21905;SDS011;11117;48.644;9.006;2023-04-25T09:11:10;6.40;;;4.47;;
21905;SDS011;11117;48.644;9.006;2023-04-25T09:13:38;9.20;;;7.00;;
21905;SDS011;11117;48.644;9.006;2023-04-25T09:16:03;7.27;;;6.00;;
21905;SDS011;11117;48.644;9.006;2023-04-25T09:18:29;6.10;;;5.00;;
21905;SDS011;11117;48.644;9.006;2023-04-25T09:20:58;4.90;;;3.80;;
21905;SDS011;11117;48.644;9.006;2023-04-25T09:23:30;5.07;;;3.77;;
21905;SDS011;11117;48.644;9.006;2023-04-25T09:25:55;3.40;;;3.10;;
21905;SDS011;11117;48.644;9.006;2023-04-25T09:28:24;4.00;;;3.20;;
21905;SDS011;11117;48.644;9.006;2023-04-25T09:30:54;6.47;;;3.70;;
21905;SDS011;11117;48.644;9.006;2023-04-25T09:33:22;3.90;;;3.20;;
21905;SDS011;11117;48.644;9.006;2023-04-25T09:35:53;5.70;;;3.67;;
21905;SDS011;11117;48.644;9.006;2023-04-25T09:38:19;2.83;;;2.30;;
21905;SDS011;11117;48.644;9.006;2023-04-25T09:40:45;2.67;;;2.13;;
21905;SDS011;11117;48.644;9.006;2023-04-25T09:43:24;2.83;;;2.10;;
21905;SDS011;11117;48.644;9.006;2023-04-25T09:45:50;2.63;;;1.97;;
21905;SDS011;11117;48.644;9.006;2023-04-25T09:48:18;2.40;;;1.80;;
21905;SDS011;11117;48.644;9.006;2023-04-25T09:50:45;1.53;;;1.37;;
21905;SDS011;11117;48.644;9.006;2023-04-25T09:53:30;2.43;;;1.27;;
21905;SDS011;11117;48.644;9.006;2023-04-25T09:55:56;3.97;;;1.30;;
21905;SDS011;11117;48.644;9.006;2023-04-25T09:58:22;1.43;;;1.33;;
21905;SDS011;11117;48.644;9.006;2023-04-25T10:00:49;2.93;;;1.80;;
21905;SDS011;11117;48.644;9.006;2023-04-25T10:03:17;5.27;;;2.30;;
21905;SDS011;11117;48.644;9.006;2023-04-25T10:05:45;1.17;;;1.00;;
21905;SDS011;11117;48.644;9.006;2023-04-25T10:08:12;1.33;;;0.90;;
21905;SDS011;11117;48.644;9.006;2023-04-25T10:10:39;1.63;;;0.83;;
21905;SDS011;11117;48.644;9.006;2023-04-25T10:13:05;0.97;;;0.90;;
21905;SDS011;11117;48.644;9.006;2023-04-25T10:15:32;1.50;;;0.90;;
21905;SDS011;11117;48.644;9.006;2023-04-25T10:18:01;1.00;;;0.80;;
21905;SDS011;11117;48.644;9.006;2023-04-25T10:20:27;0.73;;;0.73;;
21905;SDS011;11117;48.644;9.006;2023-04-25T10:22:53;0.80;;;0.80;;
21905;SDS011;11117;48.644;9.006;2023-04-25T10:25:22;1.27;;;0.70;;
21905;SDS011;11117;48.644;9.006;2023-04-25T10:27:50;1.80;;;1.00;;
21905;SDS011;11117;48.644;9.006;2023-04-25T10:30:16;5.70;;;3.33;;
21905;SDS011;11117;48.644;9.006;2023-04-25T10:32:43;2.50;;;1.60;;
21905;SDS011;11117;48.644;9.006;2023-04-25T10:35:13;2.03;;;1.40;;
21905;SDS011;11117;48.644;9.006;2023-04-25T10:37:56;1.83;;;1.03;;
21905;SDS011;11117;48.644;9.006;2023-04-25T10:40:26;1.23;;;0.90;;
21905;SDS011;11117;48.644;9.006;2023-04-25T10:42:52;0.70;;;0.70;;
21905;SDS011;11117;48.644;9.006;2023-04-25T10:45:18;2.30;;;0.70;;
21905;SDS011;11117;48.644;9.006;2023-04-25T10:47:46;0.80;;;0.80;;
21905;SDS011;11117;48.644;9.006;2023-04-25T10:50:11;0.87;;;0.50;;
21905;SDS011;11117;48.644;9.006;2023-04-25T10:52:39;0.53;;;0.53;;
21905;SDS011;11117;48.644;9.006;2023-04-25T10:55:05;0.60;;;0.50;;
21905;SDS011;11117;48.644;9.006;2023-04-25T11:00:00;0.70;;;0.70;;
21905;SDS011;11117;48.644;9.006;2023-04-25T11:02:30;1.57;;;1.40;;
21905;SDS011;11117;48.644;9.006;2023-04-25T11:04:56;1.30;;;0.80;;
21905;SDS011;11117;48.644;9.006;2023-04-25T11:10:03;1.17;;;0.90;;
21905;SDS011;11117;48.644;9.006;2023-04-25T11:12:30;1.13;;;1.00;;
21905;SDS011;11117;48.644;9.006;2023-04-25T11:15:03;1.23;;;1.13;;
21905;SDS011;11117;48.644;9.006;2023-04-25T11:17:30;0.93;;;0.80;;
21905;SDS011;11117;48.644;9.006;2023-04-25T11:19:56;0.60;;;0.60;;
21905;SDS011;11117;48.644;9.006;2023-04-25T11:22:22;1.53;;;0.80;;
21905;SDS011;11117;48.644;9.006;2023-04-25T11:24:48;0.57;;;0.47;;
21905;SDS011;11117;48.644;9.006;2023-04-25T11:27:14;2.07;;;0.80;;
21905;SDS011;11117;48.644;9.006;2023-04-25T11:29:44;1.00;;;0.80;;
21905;SDS011;11117;48.644;9.006;2023-04-25T11:32:10;1.67;;;1.40;;
21905;SDS011;11117;48.644;9.006;2023-04-25T11:34:35;2.60;;;1.57;;
21905;SDS011;11117;48.644;9.006;2023-04-25T11:37:01;1.37;;;1.20;;
21905;SDS011;11117;48.644;9.006;2023-04-25T11:39:28;2.93;;;2.00;;
21905;SDS011;11117;48.644;9.006;2023-04-25T11:41:54;1.10;;;1.00;;
21905;SDS011;11117;48.644;9.006;2023-04-25T11:44:20;1.37;;;0.77;;
21905;SDS011;11117;48.644;9.006;2023-04-25T11:46:46;0.60;;;0.60;;
21905;SDS011;11117;48.644;9.006;2023-04-25T11:49:12;1.33;;;1.17;;
21905;SDS011;11117;48.644;9.006;2023-04-25T11:51:39;1.73;;;1.50;;
21905;SDS011;11117;48.644;9.006;2023-04-25T11:54:06;1.60;;;1.47;;
21905;SDS011;11117;48.644;9.006;2023-04-25T11:56:31;4.23;;;1.77;;
21905;SDS011;11117;48.644;9.006;2023-04-25T11:58:57;2.97;;;2.40;;
21905;SDS011;11117;48.644;9.006;2023-04-25T12:01:33;6.13;;;2.37;;
21905;SDS011;11117;48.644;9.006;2023-04-25T12:04:09;6.40;;;3.00;;
21905;SDS011;11117;48.644;9.006;2023-04-25T12:06:39;4.60;;;2.00;;
21905;SDS011;11117;48.644;9.006;2023-04-25T12:09:09;5.60;;;2.53;;
21905;SDS011;11117;48.644;9.006;2023-04-25T12:11:42;3.77;;;2.20;;
21905;SDS011;11117;48.644;9.006;2023-04-25T12:14:09;3.00;;;2.50;;
21905;SDS011;11117;48.644;9.006;2023-04-25T12:16:45;4.80;;;2.30;;
21905;SDS011;11117;48.644;9.006;2023-04-25T12:19:15;2.63;;;2.20;;
21905;SDS011;11117;48.644;9.006;2023-04-25T12:21:41;5.77;;;2.43;;
21905;SDS011;11117;48.644;9.006;2023-04-25T12:26:46;3.83;;;2.70;;
21905;SDS011;11117;48.644;9.006;2023-04-25T12:29:18;2.77;;;2.40;;
21905;SDS011;11117;48.644;9.006;2023-04-25T12:31:45;5.23;;;2.80;;
21905;SDS011;11117;48.644;9.006;2023-04-25T12:34:11;5.03;;;2.80;;
21905;SDS011;11117;48.644;9.006;2023-04-25T12:36:36;3.37;;;3.07;;
21905;SDS011;11117;48.644;9.006;2023-04-25T12:39:02;4.57;;;3.17;;
21905;SDS011;11117;48.644;9.006;2023-04-25T12:41:27;4.47;;;3.47;;
21905;SDS011;11117;48.644;9.006;2023-04-25T12:43:53;6.37;;;3.63;;
21905;SDS011;11117;48.644;9.006;2023-04-25T12:46:19;9.03;;;3.90;;
21905;SDS011;11117;48.644;9.006;2023-04-25T12:48:44;4.90;;;3.90;;
21905;SDS011;11117;48.644;9.006;2023-04-25T12:51:10;6.33;;;4.00;;
21905;SDS011;11117;48.644;9.006;2023-04-25T12:53:35;5.13;;;3.73;;
21905;SDS011;11117;48.644;9.006;2023-04-25T12:56:01;7.33;;;3.90;;
21905;SDS011;11117;48.644;9.006;2023-04-25T12:58:26;7.00;;;3.90;;
21905;SDS011;11117;48.644;9.006;2023-04-25T13:00:52;4.83;;;3.80;;
21905;SDS011;11117;48.644;9.006;2023-04-25T13:03:18;5.47;;;3.83;;
21905;SDS011;11117;48.644;9.006;2023-04-25T13:05:43;6.20;;;3.53;;
21905;SDS011;11117;48.644;9.006;2023-04-25T13:08:09;4.43;;;3.90;;
21905;SDS011;11117;48.644;9.006;2023-04-25T13:10:34;6.30;;;4.30;;
21905;SDS011;11117;48.644;9.006;2023-04-25T13:13:00;5.07;;;4.00;;
21905;SDS011;11117;48.644;9.006;2023-04-25T13:15:25;6.03;;;3.70;;
21905;SDS011;11117;48.644;9.006;2023-04-25T13:17:51;8.50;;;4.17;;
21905;SDS011;11117;48.644;9.006;2023-04-25T13:20:17;5.27;;;4.10;;
21905;SDS011;11117;48.644;9.006;2023-04-25T13:22:43;7.07;;;4.20;;
21905;SDS011;11117;48.644;9.006;2023-04-25T13:25:08;6.63;;;4.70;;
21905;SDS011;11117;48.644;9.006;2023-04-25T13:27:34;8.40;;;4.63;;
21905;SDS011;11117;48.644;9.006;2023-04-25T13:30:02;7.13;;;4.50;;
21905;SDS011;11117;48.644;9.006;2023-04-25T13:32:29;7.00;;;4.93;;
21905;SDS011;11117;48.644;9.006;2023-04-25T13:34:54;7.43;;;4.77;;
21905;SDS011;11117;48.644;9.006;2023-04-25T13:37:20;6.73;;;4.90;;
21905;SDS011;11117;48.644;9.006;2023-04-25T13:39:45;8.57;;;5.07;;
21905;SDS011;11117;48.644;9.006;2023-04-25T13:42:11;6.33;;;4.87;;
21905;SDS011;11117;48.644;9.006;2023-04-25T13:44:36;10.03;;;6.30;;
21905;SDS011;11117;48.644;9.006;2023-04-25T13:47:02;9.70;;;6.30;;
21905;SDS011;11117;48.644;9.006;2023-04-25T13:49:28;12.07;;;6.83;;
21905;SDS011;11117;48.644;9.006;2023-04-25T13:51:54;7.83;;;6.27;;
21905;SDS011;11117;48.644;9.006;2023-04-25T13:54:19;12.53;;;5.40;;
21905;SDS011;11117;48.644;9.006;2023-04-25T13:56:45;7.70;;;5.60;;
21905;SDS011;11117;48.644;9.006;2023-04-25T13:59:10;7.70;;;5.70;;
21905;SDS011;11117;48.644;9.006;2023-04-25T14:01:36;5.63;;;4.90;;
21905;SDS011;11117;48.644;9.006;2023-04-25T14:04:02;7.00;;;4.63;;
21905;SDS011;11117;48.644;9.006;2023-04-25T14:06:27;7.67;;;4.93;;
21905;SDS011;11117;48.644;9.006;2023-04-25T14:08:53;8.90;;;5.87;;
21905;SDS011;11117;48.644;9.006;2023-04-25T14:11:19;7.43;;;5.13;;
21905;SDS011;11117;48.644;9.006;2023-04-25T14:13:45;7.90;;;5.20;;
21905;SDS011;11117;48.644;9.006;2023-04-25T14:16:11;6.90;;;5.10;;
21905;SDS011;11117;48.644;9.006;2023-04-25T14:18:36;7.73;;;5.40;;
21905;SDS011;11117;48.644;9.006;2023-04-25T14:21:02;8.63;;;5.80;;
21905;SDS011;11117;48.644;9.006;2023-04-25T14:23:27;7.97;;;5.77;;
21905;SDS011;11117;48.644;9.006;2023-04-25T14:25:53;9.70;;;5.90;;
21905;SDS011;11117;48.644;9.006;2023-04-25T14:28:19;12.73;;;7.53;;
21905;SDS011;11117;48.644;9.006;2023-04-25T14:30:45;8.00;;;6.17;;
21905;SDS011;11117;48.644;9.006;2023-04-25T14:33:10;8.53;;;5.83;;
21905;SDS011;11117;48.644;9.006;2023-04-25T14:35:36;7.40;;;5.60;;
21905;SDS011;11117;48.644;9.006;2023-04-25T14:38:02;7.67;;;5.43;;
21905;SDS011;11117;48.644;9.006;2023-04-25T14:40:27;6.60;;;5.17;;
21905;SDS011;11117;48.644;9.006;2023-04-25T14:42:54;7.60;;;5.27;;
21905;SDS011;11117;48.644;9.006;2023-04-25T14:45:19;7.30;;;4.90;;
21905;SDS011;11117;48.644;9.006;2023-04-25T14:47:45;6.47;;;4.77;;